sensor_id;sensor_type;location;lat;lon;timestamp;P1;durP1;ratioP1;P2;durP2;ratioP2
1404;SDS011;697;51.114;6.542;2023-04-01T00:01:38;2.20;;;0.87;;
1404;SDS011;697;51.114;6.542;2023-04-01T00:04:05;1.40;;;0.63;;
1404;SDS011;697;51.114;6.542;2023-04-01T00:06:32;2.00;;;0.97;;
1404;SDS011;697;51.114;6.542;2023-04-01T00:08:58;1.50;;;0.73;;
1404;SDS011;697;51.114;6.542;2023-04-01T00:11:25;1.20;;;0.57;;
1404;SDS011;697;51.114;6.542;2023-04-01T00:13:52;1.00;;;0.50;;
1404;SDS011;697;51.114;6.542;2023-04-01T00:16:21;1.80;;;0.63;;
1404;SDS011;697;51.114;6.542;2023-04-01T00:18:48;3.60;;;0.77;;
1404;SDS011;697;51.114;6.542;2023-04-01T00:21:15;2.80;;;0.67;;
1404;SDS011;697;51.114;6.542;2023-04-01T00:23:42;5.40;;;0.80;;
1404;SDS011;697;51.114;6.542;2023-04-01T00:26:09;2.97;;;1.00;;
1404;SDS011;697;51.114;6.542;2023-04-01T00:28:37;1.27;;;0.80;;
1404;SDS011;697;51.114;6.542;2023-04-01T00:31:04;1.80;;;0.80;;
1404;SDS011;697;51.114;6.542;2023-04-01T00:33:32;3.57;;;0.67;;
1404;SDS011;697;51.114;6.542;2023-04-01T00:36:05;2.40;;;0.70;;
1404;SDS011;697;51.114;6.542;2023-04-01T00:38:33;2.63;;;0.87;;
1404;SDS011;697;51.114;6.542;2023-04-01T00:41:00;3.83;;;0.73;;
1404;SDS011;697;51.114;6.542;2023-04-01T00:43:26;1.80;;;0.83;;
1404;SDS011;697;51.114;6.542;2023-04-01T00:45:53;3.63;;;1.00;;
1404;SDS011;697;51.114;6.542;2023-04-01T00:48:21;4.00;;;0.70;;
1404;SDS011;697;51.114;6.542;2023-04-01T00:50:53;4.57;;;0.77;;
1404;SDS011;697;51.114;6.542;2023-04-01T00:53:22;3.23;;;0.70;;
1404;SDS011;697;51.114;6.542;2023-04-01T00:55:50;2.20;;;0.60;;
1404;SDS011;697;51.114;6.542;2023-04-01T00:58:23;1.90;;;0.80;;
1404;SDS011;697;51.114;6.542;2023-04-01T01:00:51;1.73;;;0.60;;
1404;SDS011;697;51.114;6.542;2023-04-01T01:03:19;1.33;;;0.57;;
1404;SDS011;697;51.114;6.542;2023-04-01T01:05:52;0.67;;;0.47;;
1404;SDS011;697;51.114;6.542;2023-04-01T01:08:50;2.53;;;0.70;;
1404;SDS011;697;51.114;6.542;2023-04-01T01:11:29;3.83;;;0.70;;
1404;SDS011;697;51.114;6.542;2023-04-01T01:14:04;1.30;;;0.60;;
1404;SDS011;697;51.114;6.542;2023-04-01T01:16:40;0.70;;;0.70;;
1404;SDS011;697;51.114;6.542;2023-04-01T01:19:15;1.40;;;0.63;;
1404;SDS011;697;51.114;6.542;2023-04-01T01:22:04;2.00;;;0.80;;
1404;SDS011;697;51.114;6.542;2023-04-01T01:24:53;0.83;;;0.50;;
1404;SDS011;697;51.114;6.542;2023-04-01T01:27:27;1.80;;;0.73;;
1404;SDS011;697;51.114;6.542;2023-04-01T01:30:07;2.53;;;0.60;;
1404;SDS011;697;51.114;6.542;2023-04-01T01:35:48;1.03;;;0.50;;
1404;SDS011;697;51.114;6.542;2023-04-01T01:38:18;1.60;;;0.70;;
1404;SDS011;697;51.114;6.542;2023-04-01T01:40:48;3.33;;;0.80;;
1404;SDS011;697;51.114;6.542;2023-04-01T01:43:19;2.40;;;0.93;;
1404;SDS011;697;51.114;6.542;2023-04-01T01:45:49;0.90;;;0.40;;
1404;SDS011;697;51.114;6.542;2023-04-01T01:48:18;3.07;;;0.80;;
1404;SDS011;697;51.114;6.542;2023-04-01T01:50:46;2.43;;;0.87;;
1404;SDS011;697;51.114;6.542;2023-04-01T01:53:15;1.90;;;0.73;;
1404;SDS011;697;51.114;6.542;2023-04-01T01:55:43;2.37;;;0.70;;
1404;SDS011;697;51.114;6.542;2023-04-01T01:58:11;2.60;;;1.17;;
1404;SDS011;697;51.114;6.542;2023-04-01T02:00:44;1.90;;;0.93;;
1404;SDS011;697;51.114;6.542;2023-04-01T02:03:15;2.50;;;0.80;;
1404;SDS011;697;51.114;6.542;2023-04-01T02:05:45;2.60;;;0.90;;
1404;SDS011;697;51.114;6.542;2023-04-01T02:08:14;2.30;;;0.60;;
1404;SDS011;697;51.114;6.542;2023-04-01T02:10:43;1.10;;;0.60;;
1404;SDS011;697;51.114;6.542;2023-04-01T02:13:16;3.60;;;0.60;;
1404;SDS011;697;51.114;6.542;2023-04-01T02:15:48;2.23;;;0.80;;
1404;SDS011;697;51.114;6.542;2023-04-01T02:18:20;2.43;;;0.50;;
1404;SDS011;697;51.114;6.542;2023-04-01T02:20:48;1.53;;;0.67;;
1404;SDS011;697;51.114;6.542;2023-04-01T02:23:17;3.17;;;0.80;;
1404;SDS011;697;51.114;6.542;2023-04-01T02:25:44;1.27;;;0.50;;
1404;SDS011;697;51.114;6.542;2023-04-01T02:28:12;2.13;;;0.57;;
1404;SDS011;697;51.114;6.542;2023-04-01T02:30:44;0.60;;;0.50;;
1404;SDS011;697;51.114;6.542;2023-04-01T02:33:11;0.80;;;0.50;;
1404;SDS011;697;51.114;6.542;2023-04-01T02:35:38;1.40;;;0.40;;
1404;SDS011;697;51.114;6.542;2023-04-01T02:38:05;0.97;;;0.50;;
1404;SDS011;697;51.114;6.542;2023-04-01T02:40:44;1.90;;;0.40;;
1404;SDS011;697;51.114;6.542;2023-04-01T02:43:13;0.50;;;0.50;;
1404;SDS011;697;51.114;6.542;2023-04-01T02:45:41;2.93;;;0.50;;
1404;SDS011;697;51.114;6.542;2023-04-01T02:48:07;1.77;;;0.60;;
1404;SDS011;697;51.114;6.542;2023-04-01T02:50:34;3.97;;;0.47;;
1404;SDS011;697;51.114;6.542;2023-04-01T02:53:01;1.73;;;0.60;;
1404;SDS011;697;51.114;6.542;2023-04-01T02:55:28;0.73;;;0.63;;
1404;SDS011;697;51.114;6.542;2023-04-01T02:57:57;3.60;;;0.50;;
1404;SDS011;697;51.114;6.542;2023-04-01T03:00:24;0.77;;;0.47;;
1404;SDS011;697;51.114;6.542;2023-04-01T03:02:51;1.50;;;0.50;;
1404;SDS011;697;51.114;6.542;2023-04-01T03:05:18;2.20;;;0.50;;
1404;SDS011;697;51.114;6.542;2023-04-01T03:07:45;0.60;;;0.37;;
1404;SDS011;697;51.114;6.542;2023-04-01T03:10:12;2.20;;;0.50;;
1404;SDS011;697;51.114;6.542;2023-04-01T03:12:38;1.23;;;0.50;;
1404;SDS011;697;51.114;6.542;2023-04-01T03:15:08;0.53;;;0.50;;
1404;SDS011;697;51.114;6.542;2023-04-01T03:17:36;1.00;;;0.50;;
1404;SDS011;697;51.114;6.542;2023-04-01T03:20:03;0.90;;;0.43;;
1404;SDS011;697;51.114;6.542;2023-04-01T03:22:31;4.43;;;1.40;;
1404;SDS011;697;51.114;6.542;2023-04-01T03:24:57;1.50;;;0.50;;
1404;SDS011;697;51.114;6.542;2023-04-01T03:27:24;0.50;;;0.40;;
1404;SDS011;697;51.114;6.542;2023-04-01T03:29:51;1.90;;;0.40;;
1404;SDS011;697;51.114;6.542;2023-04-01T03:32:18;1.10;;;0.40;;
1404;SDS011;697;51.114;6.542;2023-04-01T03:34:45;1.60;;;0.40;;
1404;SDS011;697;51.114;6.542;2023-04-01T03:37:12;2.30;;;0.50;;
1404;SDS011;697;51.114;6.542;2023-04-01T03:39:39;2.73;;;0.50;;
1404;SDS011;697;51.114;6.542;2023-04-01T03:42:06;0.53;;;0.40;;
1404;SDS011;697;51.114;6.542;2023-04-01T03:44:33;1.27;;;0.63;;
1404;SDS011;697;51.114;6.542;2023-04-01T03:47:00;0.87;;;0.47;;
1404;SDS011;697;51.114;6.542;2023-04-01T03:49:28;0.77;;;0.47;;
1404;SDS011;697;51.114;6.542;2023-04-01T03:51:55;0.50;;;0.47;;
1404;SDS011;697;51.114;6.542;2023-04-01T03:54:21;0.87;;;0.40;;
1404;SDS011;697;51.114;6.542;2023-04-01T03:56:48;1.00;;;0.60;;
1404;SDS011;697;51.114;6.542;2023-04-01T03:59:15;1.00;;;0.70;;
1404;SDS011;697;51.114;6.542;2023-04-01T04:01:41;0.70;;;0.50;;
1404;SDS011;697;51.114;6.542;2023-04-01T04:04:10;0.57;;;0.40;;
1404;SDS011;697;51.114;6.542;2023-04-01T04:06:39;0.80;;;0.50;;
1404;SDS011;697;51.114;6.542;2023-04-01T04:09:06;1.07;;;0.97;;
1404;SDS011;697;51.114;6.542;2023-04-01T04:11:32;3.33;;;0.90;;
1404;SDS011;697;51.114;6.542;2023-04-01T04:13:59;0.60;;;0.60;;
1404;SDS011;697;51.114;6.542;2023-04-01T04:16:27;1.90;;;0.70;;
1404;SDS011;697;51.114;6.542;2023-04-01T04:18:53;2.30;;;0.93;;
1404;SDS011;697;51.114;6.542;2023-04-01T04:21:20;2.80;;;0.60;;
1404;SDS011;697;51.114;6.542;2023-04-01T04:23:48;0.60;;;0.60;;
1404;SDS011;697;51.114;6.542;2023-04-01T04:26:15;1.13;;;0.50;;
1404;SDS011;697;51.114;6.542;2023-04-01T04:28:42;1.53;;;0.60;;
1404;SDS011;697;51.114;6.542;2023-04-01T04:31:09;1.17;;;0.70;;
1404;SDS011;697;51.114;6.542;2023-04-01T04:33:35;1.37;;;0.50;;
1404;SDS011;697;51.114;6.542;2023-04-01T04:36:02;0.60;;;0.60;;
1404;SDS011;697;51.114;6.542;2023-04-01T04:38:30;2.37;;;1.10;;
1404;SDS011;697;51.114;6.542;2023-04-01T04:40:58;0.67;;;0.60;;
1404;SDS011;697;51.114;6.542;2023-04-01T04:43:25;2.00;;;0.83;;
1404;SDS011;697;51.114;6.542;2023-04-01T04:45:52;0.97;;;0.83;;
1404;SDS011;697;51.114;6.542;2023-04-01T04:48:18;1.00;;;0.80;;
1404;SDS011;697;51.114;6.542;2023-04-01T04:50:45;1.70;;;0.77;;
1404;SDS011;697;51.114;6.542;2023-04-01T04:53:13;0.70;;;0.70;;
1404;SDS011;697;51.114;6.542;2023-04-01T04:55:42;6.90;;;3.63;;
1404;SDS011;697;51.114;6.542;2023-04-01T04:58:10;1.53;;;1.10;;
1404;SDS011;697;51.114;6.542;2023-04-01T05:00:37;0.93;;;0.80;;
1404;SDS011;697;51.114;6.542;2023-04-01T05:03:04;1.00;;;1.00;;
1404;SDS011;697;51.114;6.542;2023-04-01T05:05:30;1.83;;;1.00;;
1404;SDS011;697;51.114;6.542;2023-04-01T05:07:57;2.63;;;1.30;;
1404;SDS011;697;51.114;6.542;2023-04-01T05:10:24;1.00;;;0.90;;
1404;SDS011;697;51.114;6.542;2023-04-01T05:12:51;2.27;;;1.60;;
1404;SDS011;697;51.114;6.542;2023-04-01T05:15:19;1.03;;;0.90;;
1404;SDS011;697;51.114;6.542;2023-04-01T05:17:45;1.20;;;1.10;;
1404;SDS011;697;51.114;6.542;2023-04-01T05:20:12;1.10;;;1.00;;
1404;SDS011;697;51.114;6.542;2023-04-01T05:22:40;1.63;;;1.10;;
1404;SDS011;697;51.114;6.542;2023-04-01T05:25:07;1.10;;;1.00;;
1404;SDS011;697;51.114;6.542;2023-04-01T05:27:33;1.43;;;1.30;;
1404;SDS011;697;51.114;6.542;2023-04-01T05:30:00;2.30;;;1.67;;
1404;SDS011;697;51.114;6.542;2023-04-01T05:32:30;1.40;;;1.20;;
1404;SDS011;697;51.114;6.542;2023-04-01T05:34:57;2.40;;;1.60;;
1404;SDS011;697;51.114;6.542;2023-04-01T05:37:23;1.30;;;1.20;;
1404;SDS011;697;51.114;6.542;2023-04-01T05:39:50;1.83;;;1.30;;
1404;SDS011;697;51.114;6.542;2023-04-01T05:42:17;1.20;;;1.20;;
1404;SDS011;697;51.114;6.542;2023-04-01T05:44:43;3.10;;;1.60;;
1404;SDS011;697;51.114;6.542;2023-04-01T05:47:10;1.93;;;1.30;;
1404;SDS011;697;51.114;6.542;2023-04-01T05:49:38;1.40;;;1.30;;
1404;SDS011;697;51.114;6.542;2023-04-01T05:52:05;1.30;;;1.20;;
1404;SDS011;697;51.114;6.542;2023-04-01T05:54:32;1.43;;;1.33;;
1404;SDS011;697;51.114;6.542;2023-04-01T05:56:59;2.50;;;1.40;;
1404;SDS011;697;51.114;6.542;2023-04-01T05:59:26;1.87;;;1.70;;
1404;SDS011;697;51.114;6.542;2023-04-01T06:01:52;1.87;;;1.50;;
1404;SDS011;697;51.114;6.542;2023-04-01T06:04:19;3.17;;;1.60;;
1404;SDS011;697;51.114;6.542;2023-04-01T06:06:47;1.50;;;1.40;;
1404;SDS011;697;51.114;6.542;2023-04-01T06:09:15;2.50;;;1.70;;
1404;SDS011;697;51.114;6.542;2023-04-01T06:11:46;1.30;;;1.30;;
1404;SDS011;697;51.114;6.542;2023-04-01T06:14:27;1.80;;;1.70;;
1404;SDS011;697;51.114;6.542;2023-04-01T06:17:07;5.43;;;1.80;;
1404;SDS011;697;51.114;6.542;2023-04-01T06:19:50;1.80;;;1.70;;
1404;SDS011;697;51.114;6.542;2023-04-01T06:22:47;1.43;;;1.33;;
1404;SDS011;697;51.114;6.542;2023-04-01T06:28:32;1.40;;;1.30;;
1404;SDS011;697;51.114;6.542;2023-04-01T06:31:22;2.90;;;1.57;;
1404;SDS011;697;51.114;6.542;2023-04-01T06:34:06;1.83;;;1.47;;
1404;SDS011;697;51.114;6.542;2023-04-01T06:36:51;2.43;;;1.73;;
1404;SDS011;697;51.114;6.542;2023-04-01T06:39:41;3.87;;;1.50;;
1404;SDS011;697;51.114;6.542;2023-04-01T06:42:30;3.07;;;1.90;;
1404;SDS011;697;51.114;6.542;2023-04-01T06:45:18;2.77;;;2.17;;
1404;SDS011;697;51.114;6.542;2023-04-01T06:47:58;2.23;;;1.90;;
1404;SDS011;697;51.114;6.542;2023-04-01T06:50:49;1.53;;;1.43;;
1404;SDS011;697;51.114;6.542;2023-04-01T06:53:23;2.67;;;2.47;;
1404;SDS011;697;51.114;6.542;2023-04-01T06:55:57;2.27;;;1.77;;
1404;SDS011;697;51.114;6.542;2023-04-01T06:58:29;1.60;;;1.40;;
1404;SDS011;697;51.114;6.542;2023-04-01T07:01:00;1.90;;;1.60;;
1404;SDS011;697;51.114;6.542;2023-04-01T07:03:30;2.27;;;2.10;;
1404;SDS011;697;51.114;6.542;2023-04-01T07:06:01;2.37;;;1.80;;
1404;SDS011;697;51.114;6.542;2023-04-01T07:08:30;2.00;;;1.73;;
1404;SDS011;697;51.114;6.542;2023-04-01T07:11:02;2.30;;;1.70;;
1404;SDS011;697;51.114;6.542;2023-04-01T07:13:31;2.27;;;2.00;;
1404;SDS011;697;51.114;6.542;2023-04-01T07:16:07;3.13;;;2.67;;
1404;SDS011;697;51.114;6.542;2023-04-01T07:18:40;2.97;;;2.77;;
1404;SDS011;697;51.114;6.542;2023-04-01T07:21:13;4.93;;;3.10;;
1404;SDS011;697;51.114;6.542;2023-04-01T07:23:47;3.00;;;2.70;;
1404;SDS011;697;51.114;6.542;2023-04-01T07:26:18;3.07;;;2.77;;
1404;SDS011;697;51.114;6.542;2023-04-01T07:28:46;4.03;;;2.73;;
1404;SDS011;697;51.114;6.542;2023-04-01T07:31:16;2.83;;;2.40;;
1404;SDS011;697;51.114;6.542;2023-04-01T07:33:50;4.00;;;3.03;;
1404;SDS011;697;51.114;6.542;2023-04-01T07:36:25;6.00;;;2.97;;
1404;SDS011;697;51.114;6.542;2023-04-01T07:39:01;3.27;;;2.97;;
1404;SDS011;697;51.114;6.542;2023-04-01T07:41:39;3.43;;;3.13;;
1404;SDS011;697;51.114;6.542;2023-04-01T07:44:15;3.20;;;3.00;;
1404;SDS011;697;51.114;6.542;2023-04-01T07:46:53;3.57;;;3.27;;
1404;SDS011;697;51.114;6.542;2023-04-01T07:49:30;4.17;;;3.80;;
1404;SDS011;697;51.114;6.542;2023-04-01T07:52:06;3.83;;;3.30;;
1404;SDS011;697;51.114;6.542;2023-04-01T07:54:41;3.43;;;3.13;;
1404;SDS011;697;51.114;6.542;2023-04-01T07:57:16;2.97;;;2.77;;
1404;SDS011;697;51.114;6.542;2023-04-01T07:59:49;6.03;;;3.20;;
1404;SDS011;697;51.114;6.542;2023-04-01T08:02:26;2.80;;;2.60;;
1404;SDS011;697;51.114;6.542;2023-04-01T08:05:04;3.43;;;3.13;;
1404;SDS011;697;51.114;6.542;2023-04-01T08:07:40;3.07;;;2.80;;
1404;SDS011;697;51.114;6.542;2023-04-01T08:10:12;2.83;;;2.40;;
1404;SDS011;697;51.114;6.542;2023-04-01T08:12:48;2.80;;;2.60;;
1404;SDS011;697;51.114;6.542;2023-04-01T08:15:26;3.00;;;2.57;;
1404;SDS011;697;51.114;6.542;2023-04-01T08:17:58;2.63;;;2.43;;
1404;SDS011;697;51.114;6.542;2023-04-01T08:20:32;2.20;;;2.10;;
1404;SDS011;697;51.114;6.542;2023-04-01T08:23:04;2.83;;;2.63;;
1404;SDS011;697;51.114;6.542;2023-04-01T08:25:37;2.30;;;2.20;;
1404;SDS011;697;51.114;6.542;2023-04-01T08:28:10;2.20;;;2.10;;
1404;SDS011;697;51.114;6.542;2023-04-01T08:30:44;2.10;;;1.97;;
1404;SDS011;697;51.114;6.542;2023-04-01T08:33:15;2.60;;;2.47;;
1404;SDS011;697;51.114;6.542;2023-04-01T08:35:49;1.93;;;1.83;;
1404;SDS011;697;51.114;6.542;2023-04-01T08:38:19;2.70;;;2.50;;
1404;SDS011;697;51.114;6.542;2023-04-01T08:40:56;3.50;;;1.77;;
1404;SDS011;697;51.114;6.542;2023-04-01T08:43:34;2.47;;;2.23;;
1404;SDS011;697;51.114;6.542;2023-04-01T08:49:26;2.00;;;1.90;;
1404;SDS011;697;51.114;6.542;2023-04-01T08:52:35;2.40;;;2.20;;
1404;SDS011;697;51.114;6.542;2023-04-01T08:55:22;1.97;;;1.87;;
1404;SDS011;697;51.114;6.542;2023-04-01T08:58:01;2.20;;;2.10;;
1404;SDS011;697;51.114;6.542;2023-04-01T09:00:52;2.07;;;1.97;;
1404;SDS011;697;51.114;6.542;2023-04-01T09:03:35;1.87;;;1.77;;
1404;SDS011;697;51.114;6.542;2023-04-01T09:06:20;2.40;;;1.97;;
1404;SDS011;697;51.114;6.542;2023-04-01T09:09:09;2.60;;;2.40;;
1404;SDS011;697;51.114;6.542;2023-04-01T09:15:16;3.67;;;3.37;;
1404;SDS011;697;51.114;6.542;2023-04-01T09:18:12;3.10;;;2.90;;
1404;SDS011;697;51.114;6.542;2023-04-01T09:20:55;4.33;;;3.93;;
1404;SDS011;697;51.114;6.542;2023-04-01T09:23:40;4.97;;;3.80;;
1404;SDS011;697;51.114;6.542;2023-04-01T09:29:24;4.20;;;3.90;;
1404;SDS011;697;51.114;6.542;2023-04-01T09:32:12;4.07;;;3.77;;
1404;SDS011;697;51.114;6.542;2023-04-01T09:34:55;4.60;;;4.20;;
1404;SDS011;697;51.114;6.542;2023-04-01T09:37:40;4.00;;;3.70;;
1404;SDS011;697;51.114;6.542;2023-04-01T09:40:18;4.07;;;3.77;;
1404;SDS011;697;51.114;6.542;2023-04-01T09:43:04;3.67;;;3.40;;
1404;SDS011;697;51.114;6.542;2023-04-01T09:45:48;3.87;;;3.60;;
1404;SDS011;697;51.114;6.542;2023-04-01T09:48:42;3.93;;;3.70;;
1404;SDS011;697;51.114;6.542;2023-04-01T09:51:30;5.03;;;3.70;;
1404;SDS011;697;51.114;6.542;2023-04-01T09:54:10;4.40;;;4.10;;
1404;SDS011;697;51.114;6.542;2023-04-01T09:57:01;3.40;;;3.10;;
1404;SDS011;697;51.114;6.542;2023-04-01T09:59:57;5.80;;;3.40;;
1404;SDS011;697;51.114;6.542;2023-04-01T10:03:13;2.70;;;2.60;;
1404;SDS011;697;51.114;6.542;2023-04-01T10:06:24;3.20;;;2.90;;
1404;SDS011;697;51.114;6.542;2023-04-01T10:09:20;3.33;;;3.03;;
1404;SDS011;697;51.114;6.542;2023-04-01T10:15:23;4.00;;;2.80;;
1404;SDS011;697;51.114;6.542;2023-04-01T10:18:15;2.30;;;2.20;;
1404;SDS011;697;51.114;6.542;2023-04-01T10:21:05;2.83;;;2.63;;
1404;SDS011;697;51.114;6.542;2023-04-01T10:26:55;3.30;;;3.10;;
1404;SDS011;697;51.114;6.542;2023-04-01T10:29:50;3.30;;;3.10;;
1404;SDS011;697;51.114;6.542;2023-04-01T10:32:43;3.40;;;3.20;;
1404;SDS011;697;51.114;6.542;2023-04-01T10:35:50;3.50;;;3.20;;
1404;SDS011;697;51.114;6.542;2023-04-01T10:38:44;4.70;;;3.90;;
1404;SDS011;697;51.114;6.542;2023-04-01T10:41:52;4.43;;;4.13;;
1404;SDS011;697;51.114;6.542;2023-04-01T10:44:39;4.63;;;4.23;;
1404;SDS011;697;51.114;6.542;2023-04-01T10:50:28;4.40;;;4.00;;
1404;SDS011;697;51.114;6.542;2023-04-01T10:53:32;4.50;;;4.20;;
1404;SDS011;697;51.114;6.542;2023-04-01T10:56:15;4.33;;;3.90;;
1404;SDS011;697;51.114;6.542;2023-04-01T11:05:49;5.77;;;5.30;;
1404;SDS011;697;51.114;6.542;2023-04-01T11:17:50;5.70;;;5.20;;
1404;SDS011;697;51.114;6.542;2023-04-01T11:23:58;5.43;;;4.93;;
1404;SDS011;697;51.114;6.542;2023-04-01T11:26:41;5.57;;;5.07;;
1404;SDS011;697;51.114;6.542;2023-04-01T11:29:25;4.77;;;4.43;;
1404;SDS011;697;51.114;6.542;2023-04-01T11:32:21;5.13;;;4.73;;
1404;SDS011;697;51.114;6.542;2023-04-01T11:35:06;5.20;;;4.80;;
1404;SDS011;697;51.114;6.542;2023-04-01T11:38:00;4.90;;;4.50;;
1404;SDS011;697;51.114;6.542;2023-04-01T11:40:37;4.77;;;4.40;;
1404;SDS011;697;51.114;6.542;2023-04-01T11:43:11;5.00;;;4.60;;
1404;SDS011;697;51.114;6.542;2023-04-01T11:45:45;4.63;;;4.30;;
1404;SDS011;697;51.114;6.542;2023-04-01T11:48:25;4.50;;;4.13;;
1404;SDS011;697;51.114;6.542;2023-04-01T11:51:29;5.10;;;4.70;;
1404;SDS011;697;51.114;6.542;2023-04-01T11:54:06;4.07;;;3.77;;
1404;SDS011;697;51.114;6.542;2023-04-01T11:56:49;3.83;;;3.53;;
1404;SDS011;697;51.114;6.542;2023-04-01T11:59:31;4.50;;;4.10;;
1404;SDS011;697;51.114;6.542;2023-04-01T12:02:20;4.50;;;4.10;;
1404;SDS011;697;51.114;6.542;2023-04-01T12:04:54;3.50;;;3.30;;
1404;SDS011;697;51.114;6.542;2023-04-01T12:07:41;4.20;;;3.90;;
1404;SDS011;697;51.114;6.542;2023-04-01T12:10:20;7.13;;;3.70;;
1404;SDS011;697;51.114;6.542;2023-04-01T12:12:54;3.50;;;3.27;;
1404;SDS011;697;51.114;6.542;2023-04-01T12:15:30;4.27;;;3.97;;
1404;SDS011;697;51.114;6.542;2023-04-01T12:18:12;4.33;;;4.03;;
1404;SDS011;697;51.114;6.542;2023-04-01T12:20:49;4.20;;;3.83;;
1404;SDS011;697;51.114;6.542;2023-04-01T12:23:32;4.77;;;4.37;;
1404;SDS011;697;51.114;6.542;2023-04-01T12:26:15;3.67;;;3.47;;
1404;SDS011;697;51.114;6.542;2023-04-01T12:29:06;4.63;;;4.33;;
1404;SDS011;697;51.114;6.542;2023-04-01T12:31:42;4.17;;;3.87;;
1404;SDS011;697;51.114;6.542;2023-04-01T12:37:12;4.20;;;3.90;;
1404;SDS011;697;51.114;6.542;2023-04-01T12:39:55;4.47;;;4.17;;
1404;SDS011;697;51.114;6.542;2023-04-01T12:42:32;4.60;;;4.30;;
1404;SDS011;697;51.114;6.542;2023-04-01T12:45:17;4.40;;;4.10;;
1404;SDS011;697;51.114;6.542;2023-04-01T12:47:59;4.50;;;4.20;;
1404;SDS011;697;51.114;6.542;2023-04-01T12:50:50;5.00;;;4.60;;
1404;SDS011;697;51.114;6.542;2023-04-01T12:53:41;4.80;;;4.40;;
1404;SDS011;697;51.114;6.542;2023-04-01T12:56:19;5.20;;;4.70;;
1404;SDS011;697;51.114;6.542;2023-04-01T12:58:59;5.23;;;4.83;;
1404;SDS011;697;51.114;6.542;2023-04-01T13:01:52;5.83;;;5.23;;
1404;SDS011;697;51.114;6.542;2023-04-01T13:04:44;4.50;;;4.20;;
1404;SDS011;697;51.114;6.542;2023-04-01T13:07:23;4.90;;;4.50;;
1404;SDS011;697;51.114;6.542;2023-04-01T13:10:14;4.87;;;4.37;;
1404;SDS011;697;51.114;6.542;2023-04-01T13:13:00;5.17;;;4.87;;
1404;SDS011;697;51.114;6.542;2023-04-01T13:15:44;4.97;;;4.60;;
1404;SDS011;697;51.114;6.542;2023-04-01T13:18:20;4.57;;;4.27;;
1404;SDS011;697;51.114;6.542;2023-04-01T13:20:57;4.97;;;4.50;;
1404;SDS011;697;51.114;6.542;2023-04-01T13:23:41;5.30;;;4.90;;
1404;SDS011;697;51.114;6.542;2023-04-01T13:26:18;6.63;;;4.53;;
1404;SDS011;697;51.114;6.542;2023-04-01T13:28:56;4.80;;;4.37;;
1404;SDS011;697;51.114;6.542;2023-04-01T13:31:34;4.80;;;4.40;;
1404;SDS011;697;51.114;6.542;2023-04-01T13:34:21;4.43;;;4.13;;
1404;SDS011;697;51.114;6.542;2023-04-01T13:36:59;4.87;;;4.53;;
1404;SDS011;697;51.114;6.542;2023-04-01T13:42:28;4.40;;;4.10;;
1404;SDS011;697;51.114;6.542;2023-04-01T13:45:02;4.83;;;4.53;;
1404;SDS011;697;51.114;6.542;2023-04-01T13:50:42;4.40;;;4.10;;
1404;SDS011;697;51.114;6.542;2023-04-01T13:53:24;4.43;;;4.13;;
1404;SDS011;697;51.114;6.542;2023-04-01T13:56:16;3.23;;;3.03;;
1404;SDS011;697;51.114;6.542;2023-04-01T13:59:03;3.77;;;3.53;;
1404;SDS011;697;51.114;6.542;2023-04-01T14:01:58;4.30;;;4.00;;
1404;SDS011;697;51.114;6.542;2023-04-01T14:04:47;4.50;;;4.10;;
1404;SDS011;697;51.114;6.542;2023-04-01T14:07:32;3.77;;;3.57;;
1404;SDS011;697;51.114;6.542;2023-04-01T14:10:17;4.73;;;4.33;;
1404;SDS011;697;51.114;6.542;2023-04-01T14:12:50;4.23;;;3.93;;
1404;SDS011;697;51.114;6.542;2023-04-01T14:15:38;4.70;;;4.30;;
1404;SDS011;697;51.114;6.542;2023-04-01T14:21:27;4.23;;;3.83;;
1404;SDS011;697;51.114;6.542;2023-04-01T14:24:06;3.70;;;3.40;;
1404;SDS011;697;51.114;6.542;2023-04-01T14:27:01;3.70;;;3.40;;
1404;SDS011;697;51.114;6.542;2023-04-01T14:29:52;4.40;;;4.00;;
1404;SDS011;697;51.114;6.542;2023-04-01T14:32:28;4.33;;;3.90;;
1404;SDS011;697;51.114;6.542;2023-04-01T14:35:18;6.40;;;5.90;;
1404;SDS011;697;51.114;6.542;2023-04-01T14:37:58;5.87;;;5.37;;
1404;SDS011;697;51.114;6.542;2023-04-01T14:46:23;6.60;;;6.03;;
1404;SDS011;697;51.114;6.542;2023-04-01T14:49:13;5.83;;;5.33;;
1404;SDS011;697;51.114;6.542;2023-04-01T14:51:45;6.70;;;6.10;;
1404;SDS011;697;51.114;6.542;2023-04-01T14:54:13;7.20;;;6.17;;
1404;SDS011;697;51.114;6.542;2023-04-01T14:56:48;6.00;;;5.40;;
1404;SDS011;697;51.114;6.542;2023-04-01T14:59:24;6.40;;;5.30;;
1404;SDS011;697;51.114;6.542;2023-04-01T15:01:55;6.80;;;6.10;;
1404;SDS011;697;51.114;6.542;2023-04-01T15:04:32;6.70;;;6.07;;
1404;SDS011;697;51.114;6.542;2023-04-01T15:07:29;5.10;;;4.70;;
1404;SDS011;697;51.114;6.542;2023-04-01T15:10:30;5.03;;;4.53;;
1404;SDS011;697;51.114;6.542;2023-04-01T15:13:12;5.87;;;5.37;;
1404;SDS011;697;51.114;6.542;2023-04-01T15:15:46;5.83;;;5.33;;
1404;SDS011;697;51.114;6.542;2023-04-01T15:18:23;5.83;;;5.30;;
1404;SDS011;697;51.114;6.542;2023-04-01T15:21:11;5.97;;;5.37;;
1404;SDS011;697;51.114;6.542;2023-04-01T15:23:48;4.80;;;4.40;;
1404;SDS011;697;51.114;6.542;2023-04-01T15:26:35;5.80;;;5.20;;
1404;SDS011;697;51.114;6.542;2023-04-01T15:32:30;6.90;;;6.30;;
1404;SDS011;697;51.114;6.542;2023-04-01T15:35:14;6.23;;;5.73;;
1404;SDS011;697;51.114;6.542;2023-04-01T15:37:51;5.73;;;5.10;;
1404;SDS011;697;51.114;6.542;2023-04-01T15:40:24;6.20;;;4.50;;
1404;SDS011;697;51.114;6.542;2023-04-01T15:43:00;5.27;;;4.87;;
1404;SDS011;697;51.114;6.542;2023-04-01T15:45:48;5.60;;;4.90;;
1404;SDS011;697;51.114;6.542;2023-04-01T15:48:33;6.83;;;6.10;;
1404;SDS011;697;51.114;6.542;2023-04-01T15:51:15;5.23;;;4.80;;
1404;SDS011;697;51.114;6.542;2023-04-01T15:54:06;5.20;;;4.80;;
1404;SDS011;697;51.114;6.542;2023-04-01T15:56:51;4.17;;;3.87;;
1404;SDS011;697;51.114;6.542;2023-04-01T15:59:27;3.77;;;3.47;;
1404;SDS011;697;51.114;6.542;2023-04-01T16:02:12;4.13;;;3.83;;
1404;SDS011;697;51.114;6.542;2023-04-01T16:04:50;5.20;;;4.80;;
1404;SDS011;697;51.114;6.542;2023-04-01T16:07:30;5.13;;;4.70;;
1404;SDS011;697;51.114;6.542;2023-04-01T16:13:17;4.80;;;4.40;;
1404;SDS011;697;51.114;6.542;2023-04-01T16:15:56;5.20;;;4.70;;
1404;SDS011;697;51.114;6.542;2023-04-01T16:18:31;4.73;;;4.33;;
1404;SDS011;697;51.114;6.542;2023-04-01T16:21:12;4.70;;;4.30;;
1404;SDS011;697;51.114;6.542;2023-04-01T16:23:51;4.13;;;3.83;;
1404;SDS011;697;51.114;6.542;2023-04-01T16:26:23;4.83;;;4.43;;
1404;SDS011;697;51.114;6.542;2023-04-01T16:28:57;6.40;;;4.40;;
1404;SDS011;697;51.114;6.542;2023-04-01T16:31:32;4.03;;;3.43;;
1404;SDS011;697;51.114;6.542;2023-04-01T16:34:03;4.17;;;3.87;;
1404;SDS011;697;51.114;6.542;2023-04-01T16:36:41;4.73;;;4.20;;
1404;SDS011;697;51.114;6.542;2023-04-01T16:39:17;3.90;;;3.60;;
1404;SDS011;697;51.114;6.542;2023-04-01T16:41:53;3.97;;;3.67;;
1404;SDS011;697;51.114;6.542;2023-04-01T16:44:46;3.83;;;3.53;;
1404;SDS011;697;51.114;6.542;2023-04-01T16:47:20;4.33;;;4.03;;
1404;SDS011;697;51.114;6.542;2023-04-01T16:49:54;5.07;;;4.67;;
1404;SDS011;697;51.114;6.542;2023-04-01T16:52:35;4.53;;;4.13;;
1404;SDS011;697;51.114;6.542;2023-04-01T16:55:14;4.10;;;3.80;;
1404;SDS011;697;51.114;6.542;2023-04-01T16:57:45;4.90;;;4.40;;
1404;SDS011;697;51.114;6.542;2023-04-01T17:00:18;5.03;;;4.57;;
1404;SDS011;697;51.114;6.542;2023-04-01T17:02:54;4.90;;;4.50;;
1404;SDS011;697;51.114;6.542;2023-04-01T17:05:37;4.40;;;4.00;;
1404;SDS011;697;51.114;6.542;2023-04-01T17:08:12;5.73;;;3.80;;
1404;SDS011;697;51.114;6.542;2023-04-01T17:10:49;3.57;;;3.27;;
1404;SDS011;697;51.114;6.542;2023-04-01T17:13:29;4.07;;;3.83;;
1404;SDS011;697;51.114;6.542;2023-04-01T17:16:10;4.30;;;3.87;;
1404;SDS011;697;51.114;6.542;2023-04-01T17:18:49;4.37;;;3.97;;
1404;SDS011;697;51.114;6.542;2023-04-01T17:21:22;4.40;;;3.97;;
1404;SDS011;697;51.114;6.542;2023-04-01T17:24:13;4.57;;;4.17;;
1404;SDS011;697;51.114;6.542;2023-04-01T17:26:52;4.13;;;3.83;;
1404;SDS011;697;51.114;6.542;2023-04-01T17:29:31;4.10;;;3.80;;
1404;SDS011;697;51.114;6.542;2023-04-01T17:32:08;4.40;;;4.10;;
1404;SDS011;697;51.114;6.542;2023-04-01T17:34:46;4.20;;;3.80;;
1404;SDS011;697;51.114;6.542;2023-04-01T17:37:28;4.67;;;4.30;;